Time,TemperatureF,DewpointF,PressureIn,WindDirection,WindDirectionDegrees,WindSpeedMPH,WindSpeedGustMPH,Humidity,HourlyPrecipIn,Conditions,Clouds,dailyrainin,SolarRadiationWatts/m^2,SoftwareType,DateUTC
2013-10-05 00:04:00,68.0,65.0,-100.00,WSW,243,4.0,7.0,91,0.00,,,-99.99,0.000000,,2013-10-05 04:04:00,
2013-10-05 00:14:00,68.0,65.0,-100.00,WSW,243,4.0,7.0,91,0.00,,,-99.99,0.000000,,2013-10-05 04:14:00,
2013-10-05 00:24:00,68.0,65.0,-100.00,WSW,243,4.0,7.0,91,0.00,,,-99.99,0.000000,,2013-10-05 04:24:00,
2013-10-05 00:54:00,68.0,65.0,-100.00,SW,236,5.0,7.0,89,0.00,,,0.00,0.000000,,2013-10-05 04:54:00,
2013-10-05 01:04:00,68.0,65.0,-100.00,SW,236,5.0,7.0,89,0.00,,,0.00,0.000000,,2013-10-05 05:04:00,
2013-10-05 01:13:00,68.0,65.0,-100.00,SW,236,5.0,7.0,89,0.00,,,0.00,0.000000,,2013-10-05 05:13:00,
2013-10-05 01:22:00,68.0,65.0,-100.00,SW,236,5.0,7.0,89,0.00,,,0.00,0.000000,,2013-10-05 05:22:00,
2013-10-05 01:52:00,68.0,65.0,-100.00,WSW,238,5.0,7.0,90,0.00,,,0.00,0.000000,,2013-10-05 05:52:00,
2013-10-05 02:02:00,68.0,65.0,-100.00,WSW,238,5.0,7.0,90,0.00,,,0.00,0.000000,,2013-10-05 06:02:00,
2013-10-05 02:12:00,68.0,65.0,-100.00,WSW,238,5.0,7.0,90,0.00,,,0.00,0.000000,,2013-10-05 06:12:00,
2013-10-05 02:22:00,68.0,65.0,-100.00,WSW,238,5.0,7.0,90,0.00,,,0.00,0.000000,,2013-10-05 06:22:00,
2013-10-05 02:52:00,67.0,64.0,-100.00,WSW,238,5.0,7.0,91,0.00,,,0.00,0.000000,,2013-10-05 06:52:00,
2013-10-05 03:02:00,67.0,64.0,-100.00,WSW,238,5.0,7.0,91,0.00,,,0.00,0.000000,,2013-10-05 07:02:00,
2013-10-05 03:12:00,67.0,64.0,-100.00,WSW,238,5.0,7.0,91,0.00,,,0.00,0.000000,,2013-10-05 07:12:00,
2013-10-05 03:22:00,67.0,64.0,-100.00,WSW,238,5.0,7.0,91,0.00,,,0.00,0.000000,,2013-10-05 07:22:00,
2013-10-05 03:52:00,66.0,64.0,-100.00,WSW,243,4.0,7.0,94,0.00,,,0.00,0.000000,,2013-10-05 07:52:00,
2013-10-05 04:02:00,66.0,64.0,-100.00,WSW,243,4.0,7.0,94,0.00,,,0.00,0.000000,,2013-10-05 08:02:00,
2013-10-05 04:12:00,66.0,64.0,-100.00,WSW,243,4.0,7.0,94,0.00,,,0.00,0.000000,,2013-10-05 08:12:00,
2013-10-05 04:23:00,66.0,64.0,-100.00,WSW,243,4.0,7.0,94,0.00,,,0.00,0.000000,,2013-10-05 08:23:00,
2013-10-05 04:52:00,66.0,65.0,-100.00,WSW,243,4.0,7.0,96,0.00,,,0.00,0.000000,,2013-10-05 08:52:00,
2013-10-05 05:02:00,66.0,65.0,-100.00,WSW,243,4.0,7.0,96,0.00,,,0.00,0.000000,,2013-10-05 09:02:00,
2013-10-05 05:12:00,66.0,65.0,-100.00,WSW,243,4.0,7.0,96,0.00,,,0.00,0.000000,,2013-10-05 09:12:00,
2013-10-05 05:22:00,66.0,65.0,-100.00,WSW,243,4.0,7.0,96,0.00,,,0.00,0.000000,,2013-10-05 09:22:00,
2013-10-05 05:54:00,67.0,66.0,-100.00,WSW,241,4.0,8.0,95,0.00,,,0.00,0.000000,,2013-10-05 09:54:00,
2013-10-05 06:04:00,67.0,66.0,-100.00,WSW,241,4.0,8.0,95,0.00,,,0.00,0.000000,,2013-10-05 10:04:00,
2013-10-05 06:12:00,67.0,66.0,-100.00,WSW,241,4.0,8.0,95,0.00,,,0.00,0.000000,,2013-10-05 10:12:00,
2013-10-05 06:23:00,67.0,66.0,-100.00,WSW,241,4.0,8.0,95,0.00,,,0.00,0.000000,,2013-10-05 10:23:00,
2013-10-05 06:54:00,67.0,65.0,-100.00,WSW,245,4.0,8.0,94,0.00,,,0.00,0.000000,,2013-10-05 10:54:00,
2013-10-05 07:02:00,67.0,65.0,-100.00,WSW,245,4.0,8.0,94,0.00,,,0.00,0.000000,,2013-10-05 11:02:00,
2013-10-05 07:12:00,67.0,65.0,-100.00,WSW,245,4.0,8.0,94,0.00,,,0.00,0.000000,,2013-10-05 11:12:00,
2013-10-05 07:22:00,67.0,65.0,-100.00,WSW,245,4.0,8.0,94,0.00,,,0.00,0.000000,,2013-10-05 11:22:00,
2013-10-05 07:52:00,66.0,65.0,-100.00,SW,234,3.0,6.0,97,0.00,,,0.00,5.000000,,2013-10-05 11:52:00,
2013-10-05 08:02:00,66.0,65.0,-100.00,SW,234,3.0,6.0,97,0.00,,,0.00,5.000000,,2013-10-05 12:02:00,
2013-10-05 08:12:00,66.0,65.0,-100.00,SW,234,3.0,6.0,97,0.00,,,0.00,5.000000,,2013-10-05 12:12:00,
2013-10-05 08:22:00,66.0,65.0,-100.00,SW,234,3.0,6.0,97,0.00,,,0.00,5.000000,,2013-10-05 12:22:00,
2013-10-05 08:53:00,73.0,69.0,-100.00,West,260,3.0,5.0,87,0.00,,,0.00,98.000000,,2013-10-05 12:53:00,
2013-10-05 09:02:00,73.0,69.0,-100.00,West,260,3.0,5.0,87,0.00,,,0.00,98.000000,,2013-10-05 13:02:00,
2013-10-05 09:12:00,73.0,69.0,-100.00,West,260,3.0,5.0,87,0.00,,,0.00,98.000000,,2013-10-05 13:12:00,
2013-10-05 09:22:00,73.0,69.0,-100.00,West,260,3.0,5.0,87,0.00,,,0.00,98.000000,,2013-10-05 13:22:00,
2013-10-05 10:22:00,79.0,68.0,-100.00,WNW,294,4.0,7.0,70,0.00,,,0.00,270.000000,,2013-10-05 14:22:00,
2013-10-05 10:52:00,81.0,68.0,-100.00,North,8,4.0,8.0,65,0.00,,,0.00,419.000000,,2013-10-05 14:52:00,
2013-10-05 11:02:00,81.0,68.0,-100.00,North,8,4.0,8.0,65,0.00,,,0.00,419.000000,,2013-10-05 15:02:00,
2013-10-05 11:12:00,81.0,68.0,-100.00,North,8,4.0,8.0,65,0.00,,,0.00,419.000000,,2013-10-05 15:12:00,
2013-10-05 11:22:00,81.0,68.0,-100.00,North,8,4.0,8.0,65,0.00,,,0.00,419.000000,,2013-10-05 15:22:00,
2013-10-05 11:54:00,81.0,67.0,-100.00,North,10,4.0,8.0,63,0.00,,,0.00,558.000000,,2013-10-05 15:54:00,
2013-10-05 12:04:00,81.0,67.0,-100.00,North,10,4.0,8.0,63,0.00,,,0.00,558.000000,,2013-10-05 16:04:00,
2013-10-05 12:13:00,81.0,67.0,-100.00,North,10,4.0,8.0,63,0.00,,,0.00,558.000000,,2013-10-05 16:13:00,
2013-10-05 12:24:00,81.0,67.0,-100.00,North,10,4.0,8.0,63,0.00,,,0.00,558.000000,,2013-10-05 16:24:00,
2013-10-05 12:53:00,83.0,69.0,-100.00,NNE,26,3.0,8.0,62,0.00,,,0.00,641.000000,,2013-10-05 16:53:00,
2013-10-05 13:03:00,83.0,69.0,-100.00,NNE,26,3.0,8.0,62,0.00,,,0.00,641.000000,,2013-10-05 17:03:00,
2013-10-05 13:12:00,83.0,69.0,-100.00,NNE,26,3.0,8.0,62,0.00,,,0.00,641.000000,,2013-10-05 17:12:00,
2013-10-05 13:22:00,83.0,69.0,-100.00,NNE,26,3.0,8.0,62,0.00,,,0.00,641.000000,,2013-10-05 17:22:00,
2013-10-05 13:53:00,81.0,69.0,-100.00,ENE,74,5.0,7.0,66,0.00,,,0.00,650.000000,,2013-10-05 17:53:00,
2013-10-05 14:02:00,81.0,69.0,-100.00,ENE,74,5.0,7.0,66,0.00,,,0.00,650.000000,,2013-10-05 18:02:00,
2013-10-05 14:12:00,81.0,69.0,-100.00,ENE,74,5.0,7.0,66,0.00,,,0.00,650.000000,,2013-10-05 18:12:00,
2013-10-05 14:22:00,81.0,69.0,-100.00,ENE,74,5.0,7.0,66,0.00,,,0.00,650.000000,,2013-10-05 18:22:00,
2013-10-05 14:52:00,83.0,68.0,-100.00,East,100,5.0,7.0,60,0.00,,,0.00,592.000000,,2013-10-05 18:52:00,
2013-10-05 15:02:00,83.0,68.0,-100.00,East,100,5.0,7.0,60,0.00,,,0.00,592.000000,,2013-10-05 19:02:00,
2013-10-05 15:11:00,83.0,68.0,-100.00,East,100,5.0,7.0,60,0.00,,,0.00,592.000000,,2013-10-05 19:11:00,
2013-10-05 15:22:00,83.0,68.0,-100.00,East,100,5.0,7.0,60,0.00,,,0.00,592.000000,,2013-10-05 19:22:00,
2013-10-05 15:52:00,82.0,69.0,-100.00,East,88,7.0,8.0,65,0.00,,,0.00,542.000000,,2013-10-05 19:52:00,
2013-10-05 16:02:00,82.0,69.0,-100.00,East,88,7.0,8.0,65,0.00,,,0.00,542.000000,,2013-10-05 20:02:00,
2013-10-05 16:11:00,82.0,69.0,-100.00,East,88,7.0,8.0,65,0.00,,,0.00,542.000000,,2013-10-05 20:11:00,
2013-10-05 16:22:00,82.0,69.0,-100.00,East,88,7.0,8.0,65,0.00,,,0.00,542.000000,,2013-10-05 20:22:00,
2013-10-05 16:52:00,77.0,70.0,-100.00,ESE,102,10.0,13.0,78,0.00,,,0.00,336.000000,,2013-10-05 20:52:00,
2013-10-05 17:02:00,77.0,70.0,-100.00,ESE,102,10.0,13.0,78,0.00,,,0.00,336.000000,,2013-10-05 21:02:00,
2013-10-05 17:12:00,77.0,70.0,-100.00,ESE,102,10.0,13.0,78,0.00,,,0.00,336.000000,,2013-10-05 21:12:00,
2013-10-05 17:22:00,77.0,70.0,-100.00,ESE,102,10.0,13.0,78,0.00,,,0.00,336.000000,,2013-10-05 21:22:00,
2013-10-05 17:54:00,72.0,70.0,-100.00,East,101,13.0,17.0,94,0.00,,,0.00,235.000000,,2013-10-05 21:54:00,
2013-10-05 18:04:00,72.0,70.0,-100.00,East,101,13.0,17.0,94,0.00,,,0.00,235.000000,,2013-10-05 22:04:00,
2013-10-05 18:13:00,72.0,70.0,-100.00,East,101,13.0,17.0,94,0.00,,,0.00,235.000000,,2013-10-05 22:13:00,
2013-10-05 18:24:00,72.0,70.0,-100.00,East,101,13.0,17.0,94,0.00,,,0.00,235.000000,,2013-10-05 22:24:00,
2013-10-05 18:53:00,70.0,70.0,-100.00,ESE,107,11.0,18.0,100,0.00,,,0.00,43.000000,,2013-10-05 22:53:00,
2013-10-05 19:02:00,70.0,70.0,-100.00,ESE,107,11.0,18.0,100,0.00,,,0.00,43.000000,,2013-10-05 23:02:00,
2013-10-05 19:13:00,70.0,70.0,-100.00,ESE,107,11.0,18.0,100,0.00,,,0.00,43.000000,,2013-10-05 23:13:00,
2013-10-05 19:22:00,70.0,70.0,-100.00,ESE,107,11.0,18.0,100,0.00,,,0.00,43.000000,,2013-10-05 23:22:00,
2013-10-05 19:53:00,68.0,68.0,-100.00,ESE,113,8.0,14.0,100,0.00,,,0.00,1.000000,,2013-10-05 23:53:00,
2013-10-05 20:02:00,68.0,68.0,-100.00,ESE,113,8.0,14.0,100,0.00,,,0.00,1.000000,,2013-10-06 00:02:00,
2013-10-05 20:12:00,68.0,68.0,-100.00,ESE,113,8.0,14.0,100,0.00,,,0.00,1.000000,,2013-10-06 00:12:00,
2013-10-05 20:23:00,68.0,68.0,-100.00,ESE,113,8.0,14.0,100,0.00,,,0.00,1.000000,,2013-10-06 00:23:00,
2013-10-05 20:52:00,68.0,68.0,-100.00,ESE,112,7.0,13.0,100,0.00,,,0.00,0.000000,,2013-10-06 00:52:00,
2013-10-05 21:02:00,68.0,68.0,-100.00,ESE,112,7.0,13.0,100,0.00,,,0.00,0.000000,,2013-10-06 01:02:00,
2013-10-05 21:11:00,68.0,68.0,-100.00,ESE,112,7.0,13.0,100,0.00,,,0.00,0.000000,,2013-10-06 01:11:00,
2013-10-05 21:22:00,68.0,68.0,-100.00,ESE,112,7.0,13.0,100,0.00,,,0.00,0.000000,,2013-10-06 01:22:00,
2013-10-05 21:52:00,68.0,68.0,-100.00,ESE,103,6.0,11.0,100,0.00,,,0.00,0.000000,,2013-10-06 01:52:00,
2013-10-05 22:02:00,68.0,68.0,-100.00,ESE,103,6.0,11.0,100,0.00,,,0.00,0.000000,,2013-10-06 02:02:00,
2013-10-05 22:12:00,68.0,68.0,-100.00,ESE,103,6.0,11.0,100,0.00,,,0.00,0.000000,,2013-10-06 02:12:00,
2013-10-05 22:22:00,68.0,68.0,-100.00,ESE,103,6.0,11.0,100,0.00,,,0.00,0.000000,,2013-10-06 02:22:00,
2013-10-05 22:53:00,68.0,68.0,-100.00,SE,142,1.0,7.0,100,0.00,,,0.00,0.000000,,2013-10-06 02:53:00,
2013-10-05 23:02:00,68.0,68.0,-100.00,SE,142,1.0,7.0,100,0.00,,,0.00,0.000000,,2013-10-06 03:02:00,
2013-10-05 23:12:00,68.0,68.0,-100.00,SE,142,1.0,7.0,100,0.00,,,0.00,0.000000,,2013-10-06 03:12:00,
2013-10-05 23:22:00,68.0,68.0,-100.00,SE,142,1.0,7.0,100,0.00,,,0.00,0.000000,,2013-10-06 03:22:00,
2013-10-05 23:54:00,68.0,68.0,-100.00,East,98,4.0,-999.0,100,0.00,,,0.00,,,2013-10-06 03:54:00,